Time;durP1;ratioP1;P1;durP2;ratioP2;P2;SDS_P1;SDS_P2;PMS_P1;PMS_P2;Temp;Humidity;BMP_temperature;BMP_pressure;BME280_temperature;BME280_humidity;BME280_pressure;Samples;Min_cycle;Max_cycle;Signal;HPM_P1;HPM_P2
2021/01/20 00:02:20;;;;;;;93.07;45.43;;;-0.10;99.90;;;;;;5032108;28;20206;-73
2021/01/20 00:04:46;;;;;;;98.17;46.90;;;-0.10;99.90;;;;;;5028119;28;20298;-72
2021/01/20 00:07:13;;;;;;;87.20;44.17;;;-0.10;99.90;;;;;;5034933;28;20253;-73
2021/01/20 00:09:40;;;;;;;90.03;43.00;;;-0.10;99.90;;;;;;5032894;28;20288;-73
2021/01/20 00:12:06;;;;;;;85.90;42.37;;;0.00;99.90;;;;;;5031192;28;20234;-73
2021/01/20 00:14:33;;;;;;;90.13;42.57;;;0.00;99.90;;;;;;5033249;28;20221;-74
2021/01/20 00:16:59;;;;;;;87.60;42.70;;;0.00;99.90;;;;;;5032614;28;20290;-74
2021/01/20 00:19:26;;;;;;;83.17;41.73;;;0.00;99.90;;;;;;5033406;28;20206;-74
2021/01/20 00:21:52;;;;;;;83.97;40.57;;;0.10;99.90;;;;;;5023792;28;20207;-73
2021/01/20 00:24:19;;;;;;;78.20;39.83;;;0.10;99.90;;;;;;5035858;28;20754;-75
2021/01/20 00:26:46;;;;;;;77.30;39.97;;;0.10;99.90;;;;;;5024783;28;20213;-74
2021/01/20 00:29:12;;;;;;;74.87;39.90;;;0.10;99.90;;;;;;5030017;28;20719;-73
2021/01/20 00:31:38;;;;;;;79.77;39.10;;;0.10;99.90;;;;;;5021472;28;20269;-73
2021/01/20 00:34:05;;;;;;;78.80;39.33;;;0.10;99.90;;;;;;5029812;28;20237;-73
2021/01/20 00:36:31;;;;;;;86.43;39.63;;;0.10;99.90;;;;;;5034959;28;20213;-73
2021/01/20 00:38:57;;;;;;;71.20;37.10;;;0.20;99.90;;;;;;5036004;28;20210;-74
2021/01/20 00:41:25;;;;;;;70.40;36.93;;;0.10;99.90;;;;;;5030994;28;20589;-74
2021/01/20 00:43:51;;;;;;;77.17;37.07;;;0.20;99.90;;;;;;5032164;28;20216;-73
2021/01/20 00:46:17;;;;;;;71.13;36.60;;;0.20;99.90;;;;;;5028359;28;20572;-74
2021/01/20 00:48:45;;;;;;;72.47;35.23;;;0.20;99.90;;;;;;5031780;28;20661;-74
2021/01/20 00:51:13;;;;;;;70.47;34.00;;;0.20;99.90;;;;;;5031551;28;20218;-74
2021/01/20 00:53:39;;;;;;;71.70;36.27;;;0.20;99.90;;;;;;5032602;28;20218;-73
2021/01/20 00:56:06;;;;;;;65.63;35.00;;;0.20;99.90;;;;;;5035440;28;20199;-74
2021/01/20 00:58:33;;;;;;;71.17;34.43;;;0.20;99.90;;;;;;5026806;28;20551;-73
2021/01/20 01:00:59;;;;;;;60.23;32.73;;;0.20;99.90;;;;;;5031634;28;20618;-74
2021/01/20 01:03:26;;;;;;;62.97;34.10;;;0.20;99.90;;;;;;5032312;28;20204;-73
2021/01/20 01:05:52;;;;;;;62.43;32.73;;;0.20;99.90;;;;;;5027054;28;20305;-73
2021/01/20 01:08:19;;;;;;;66.83;34.73;;;0.20;99.90;;;;;;5030148;28;20198;-73
2021/01/20 01:10:45;;;;;;;71.73;33.40;;;0.20;99.90;;;;;;5026133;28;20313;-73
2021/01/20 01:13:12;;;;;;;60.83;32.23;;;0.20;99.90;;;;;;5021154;28;20231;-74
2021/01/20 01:15:39;;;;;;;63.63;32.13;;;0.20;99.90;;;;;;5031993;28;20206;-73
2021/01/20 01:18:05;;;;;;;64.73;31.07;;;0.20;99.90;;;;;;5025707;28;20290;-74
2021/01/20 01:20:32;;;;;;;57.87;30.33;;;0.20;99.90;;;;;;5029115;28;20285;-73
2021/01/20 01:22:59;;;;;;;56.80;29.93;;;0.20;99.90;;;;;;5033870;28;20563;-73
2021/01/20 01:25:25;;;;;;;58.07;30.43;;;0.20;99.90;;;;;;5029022;28;20206;-74
2021/01/20 01:27:52;;;;;;;56.63;29.23;;;0.20;99.90;;;;;;5032191;28;20289;-73
2021/01/20 01:30:19;;;;;;;58.93;29.90;;;0.20;99.90;;;;;;5028009;28;20581;-73
2021/01/20 01:32:46;;;;;;;54.80;29.67;;;0.20;99.90;;;;;;5029898;28;20229;-73
2021/01/20 01:35:13;;;;;;;54.97;28.23;;;0.20;99.90;;;;;;5030263;28;20571;-73
2021/01/20 01:37:39;;;;;;;54.73;27.60;;;0.20;99.90;;;;;;5029102;28;20290;-72
2021/01/20 01:40:07;;;;;;;52.83;28.80;;;0.20;99.90;;;;;;5027485;28;20298;-74
2021/01/20 01:42:33;;;;;;;50.30;27.47;;;0.20;99.90;;;;;;5028362;28;20617;-73
2021/01/20 01:45:01;;;;;;;61.43;29.90;;;0.20;99.90;;;;;;5028305;28;20551;-73
2021/01/20 01:47:27;;;;;;;57.57;27.40;;;0.20;99.90;;;;;;5028059;28;20205;-74
2021/01/20 01:49:56;;;;;;;50.67;28.13;;;0.10;99.90;;;;;;5028784;28;20215;-74
2021/01/20 01:52:23;;;;;;;55.57;28.57;;;0.10;99.90;;;;;;5030177;28;20230;-74
2021/01/20 01:54:53;;;;;;;55.40;27.23;;;0.20;99.90;;;;;;5025091;28;20606;-73
2021/01/20 01:57:20;;;;;;;48.63;26.47;;;0.10;99.90;;;;;;5023388;28;20209;-73
2021/01/20 01:59:48;;;;;;;48.70;26.20;;;0.10;99.90;;;;;;5021309;28;20243;-72
2021/01/20 02:02:15;;;;;;;48.00;26.47;;;0.10;99.90;;;;;;5031919;28;20214;-73
2021/01/20 02:04:41;;;;;;;51.27;25.67;;;0.10;99.90;;;;;;5032395;28;20203;-73
2021/01/20 02:07:09;;;;;;;52.80;27.10;;;0.10;99.90;;;;;;5027856;28;20210;-73
2021/01/20 02:09:36;;;;;;;47.97;25.20;;;0.10;99.90;;;;;;5031756;28;20210;-74
2021/01/20 02:12:26;;;;;;;49.90;27.17;;;0.10;99.90;;;;;;5023335;28;20292;-73
2021/01/20 02:14:59;;;;;;;47.33;25.27;;;0.10;99.90;;;;;;5035308;28;20203;-73
2021/01/20 02:17:33;;;;;;;52.03;27.03;;;0.10;99.90;;;;;;5029601;28;20195;-73
2021/01/20 02:20:25;;;;;;;46.93;26.23;;;0.00;99.90;;;;;;5028997;28;20627;-73
2021/01/20 02:22:57;;;;;;;46.20;24.77;;;0.00;99.90;;;;;;5021268;28;20203;-74
2021/01/20 02:25:48;;;;;;;52.90;24.80;;;0.00;99.90;;;;;;5030428;28;20202;-73
2021/01/20 02:28:18;;;;;;;49.57;25.10;;;0.00;99.90;;;;;;5023498;28;20219;-73
2021/01/20 02:30:47;;;;;;;48.43;24.10;;;0.00;99.90;;;;;;5030429;28;20223;-74
2021/01/20 02:33:20;;;;;;;50.80;25.17;;;0.00;99.90;;;;;;5028522;28;20234;-72
2021/01/20 02:35:52;;;;;;;54.90;26.10;;;0.00;99.90;;;;;;5027664;28;20294;-74
2021/01/20 02:38:19;;;;;;;56.30;26.37;;;0.00;99.90;;;;;;5028362;28;20219;-73
2021/01/20 02:40:46;;;;;;;47.77;24.13;;;-0.10;99.90;;;;;;5032727;28;20209;-73
2021/01/20 02:43:12;;;;;;;49.70;25.70;;;0.00;99.90;;;;;;5031883;28;20567;-74
2021/01/20 02:45:38;;;;;;;47.47;25.20;;;0.00;99.90;;;;;;5026651;28;20613;-72
2021/01/20 02:48:06;;;;;;;47.40;25.90;;;-0.10;99.90;;;;;;5025733;28;20224;-73
2021/01/20 02:50:35;;;;;;;45.53;24.30;;;-0.10;99.90;;;;;;5026258;28;20203;-73
2021/01/20 02:53:06;;;;;;;46.73;24.27;;;-0.10;99.90;;;;;;5031755;28;20202;-72
2021/01/20 02:55:34;;;;;;;47.33;25.07;;;-0.10;99.90;;;;;;5032184;28;20202;-72
2021/01/20 02:58:05;;;;;;;52.80;24.70;;;-0.10;99.90;;;;;;5026820;28;20673;-73
2021/01/20 03:00:33;;;;;;;48.80;25.20;;;-0.10;99.90;;;;;;5028669;28;20285;-73
2021/01/20 03:03:05;;;;;;;47.37;24.77;;;-0.10;99.90;;;;;;5031682;28;20613;-73
2021/01/20 03:05:34;;;;;;;48.60;24.73;;;-0.10;99.90;;;;;;5028845;28;20201;-74
2021/01/20 03:08:01;;;;;;;47.97;23.13;;;-0.10;99.90;;;;;;5031569;28;20207;-73
2021/01/20 03:10:28;;;;;;;46.20;24.03;;;-0.10;99.90;;;;;;5031312;28;20857;-73
2021/01/20 03:12:55;;;;;;;47.50;24.63;;;0.00;99.90;;;;;;5023309;28;20230;-74
2021/01/20 03:15:23;;;;;;;46.77;24.00;;;-0.10;99.90;;;;;;5032327;28;20210;-74
2021/01/20 03:17:50;;;;;;;43.23;24.03;;;-0.10;99.90;;;;;;5026022;28;20651;-72
2021/01/20 03:20:16;;;;;;;48.47;23.90;;;-0.10;99.90;;;;;;5026920;28;20241;-74
2021/01/20 03:22:43;;;;;;;46.03;24.07;;;-0.10;99.90;;;;;;5031328;28;20199;-72
2021/01/20 03:25:11;;;;;;;47.70;24.23;;;-0.10;99.90;;;;;;5025533;28;20555;-72
2021/01/20 03:27:37;;;;;;;50.10;24.23;;;0.00;99.90;;;;;;5032864;28;20723;-72
2021/01/20 03:30:06;;;;;;;44.83;23.33;;;0.00;99.90;;;;;;5028501;28;20216;-74
2021/01/20 03:32:32;;;;;;;47.00;24.60;;;0.00;99.90;;;;;;5034925;28;20223;-73
2021/01/20 03:34:58;;;;;;;49.03;25.63;;;0.00;99.90;;;;;;5034481;28;20209;-72
2021/01/20 03:37:25;;;;;;;46.57;23.83;;;0.00;99.90;;;;;;5034384;28;20250;-72
2021/01/20 03:39:52;;;;;;;46.60;24.30;;;0.00;99.90;;;;;;5024500;28;20644;-73
2021/01/20 03:42:19;;;;;;;45.07;24.80;;;0.00;99.90;;;;;;5033086;28;20789;-73
2021/01/20 03:44:45;;;;;;;46.10;24.07;;;0.00;99.90;;;;;;5037275;28;20214;-72
2021/01/20 03:47:11;;;;;;;47.87;23.57;;;0.10;99.90;;;;;;5035720;28;20818;-73
2021/01/20 03:49:38;;;;;;;48.53;23.90;;;0.10;99.90;;;;;;5037232;28;20563;-74
2021/01/20 03:52:05;;;;;;;44.63;24.07;;;0.10;99.90;;;;;;5029260;28;20772;-73
2021/01/20 03:54:31;;;;;;;44.00;23.87;;;0.10;99.90;;;;;;5027653;28;20206;-73
2021/01/20 03:56:59;;;;;;;48.10;23.70;;;0.10;99.90;;;;;;5033901;28;20198;-74
2021/01/20 03:59:25;;;;;;;44.70;23.13;;;0.10;99.90;;;;;;5029889;28;20702;-73
2021/01/20 04:01:51;;;;;;;49.07;24.40;;;0.10;99.90;;;;;;5032140;28;20295;-73
2021/01/20 04:04:18;;;;;;;45.87;23.50;;;0.10;99.90;;;;;;5026798;28;20207;-73
2021/01/20 04:06:45;;;;;;;42.13;23.17;;;0.10;99.90;;;;;;5035340;28;20294;-74
2021/01/20 04:09:12;;;;;;;48.87;25.70;;;0.10;99.90;;;;;;5031228;28;20213;-73
2021/01/20 04:11:38;;;;;;;46.47;24.17;;;0.10;99.90;;;;;;5030652;28;20690;-74
2021/01/20 04:14:05;;;;;;;48.30;23.83;;;0.10;99.90;;;;;;5033743;28;20718;-74
2021/01/20 04:16:32;;;;;;;44.07;23.40;;;0.10;99.90;;;;;;5028461;28;20543;-73
2021/01/20 04:19:02;;;;;;;46.67;22.57;;;0.10;99.90;;;;;;5033897;28;20666;-73
2021/01/20 04:21:29;;;;;;;47.13;23.77;;;0.10;99.90;;;;;;5034500;28;20207;-72
2021/01/20 04:23:55;;;;;;;43.67;22.70;;;0.10;99.90;;;;;;5030911;28;20297;-73
2021/01/20 04:26:22;;;;;;;44.30;23.83;;;0.10;99.90;;;;;;5036674;28;20206;-74
2021/01/20 04:28:48;;;;;;;45.30;22.87;;;0.10;99.90;;;;;;5035141;28;20267;-73
2021/01/20 04:31:15;;;;;;;44.77;23.67;;;0.10;99.90;;;;;;5029798;28;20227;-73
2021/01/20 04:33:42;;;;;;;41.70;22.60;;;0.10;99.90;;;;;;5029948;28;20253;-72
2021/01/20 04:36:08;;;;;;;40.90;22.30;;;0.10;99.90;;;;;;5030897;28;20698;-73
2021/01/20 04:38:35;;;;;;;42.80;23.37;;;0.10;99.90;;;;;;5033963;28;20211;-73
2021/01/20 04:41:02;;;;;;;43.37;23.03;;;0.10;99.90;;;;;;5035378;28;20202;-74
2021/01/20 04:43:28;;;;;;;43.80;23.83;;;0.10;99.90;;;;;;5033025;28;20722;-73
2021/01/20 04:45:55;;;;;;;41.07;22.37;;;0.10;99.90;;;;;;5034686;28;20294;-73
2021/01/20 04:48:31;;;;;;;40.57;22.43;;;0.10;99.90;;;;;;5034376;28;20241;-72
2021/01/20 04:50:59;;;;;;;38.10;21.70;;;0.10;99.90;;;;;;5026875;28;20313;-72
2021/01/20 04:53:26;;;;;;;41.83;22.40;;;0.10;99.90;;;;;;5031848;28;20202;-73
2021/01/20 04:55:55;;;;;;;45.43;23.50;;;0.20;99.90;;;;;;5031798;28;20298;-74
2021/01/20 04:58:22;;;;;;;43.03;22.73;;;0.10;99.90;;;;;;5035917;28;20226;-73
2021/01/20 05:00:52;;;;;;;37.83;21.40;;;0.10;99.90;;;;;;5033947;28;20218;-72
2021/01/20 05:03:18;;;;;;;43.77;22.80;;;0.10;99.90;;;;;;5038341;28;20266;-73
2021/01/20 05:05:46;;;;;;;40.33;22.17;;;0.10;99.90;;;;;;5032283;28;20322;-72
2021/01/20 05:08:13;;;;;;;44.03;22.87;;;0.10;99.90;;;;;;5033715;28;20301;-72
2021/01/20 05:10:39;;;;;;;42.40;22.93;;;0.10;99.90;;;;;;5032166;28;20226;-72
2021/01/20 05:13:23;;;;;;;42.73;23.10;;;0.20;99.90;;;;;;5035728;28;20222;-72
2021/01/20 05:15:49;;;;;;;42.53;22.83;;;0.20;99.90;;;;;;5033591;28;20727;-72
2021/01/20 05:18:16;;;;;;;44.17;23.20;;;0.20;99.90;;;;;;5026192;28;20299;-74
2021/01/20 05:20:42;;;;;;;39.87;21.27;;;0.20;99.90;;;;;;5035616;28;20207;-73
2021/01/20 05:23:11;;;;;;;43.90;23.00;;;0.20;99.90;;;;;;5032728;28;20570;-72
2021/01/20 05:25:39;;;;;;;41.77;22.43;;;0.20;99.90;;;;;;5030212;28;20679;-72
2021/01/20 05:28:17;;;;;;;46.13;22.93;;;0.20;99.90;;;;;;5035860;28;20206;-72
2021/01/20 05:30:48;;;;;;;40.27;21.53;;;0.20;99.90;;;;;;5032124;28;20199;-72
2021/01/20 05:33:16;;;;;;;43.90;22.70;;;0.30;99.90;;;;;;5031879;28;20624;-73
2021/01/20 05:35:43;;;;;;;45.10;21.77;;;0.30;99.90;;;;;;5027767;28;20242;-73
2021/01/20 05:38:11;;;;;;;45.40;22.37;;;0.30;99.90;;;;;;5028071;28;20203;-73
2021/01/20 05:40:38;;;;;;;36.90;21.30;;;0.30;99.90;;;;;;5030783;28;20215;-72
2021/01/20 05:43:06;;;;;;;37.67;21.57;;;0.40;99.90;;;;;;5031152;28;20202;-72
2021/01/20 05:45:45;;;;;;;42.27;20.73;;;0.40;99.90;;;;;;5026498;28;20541;-72
2021/01/20 05:48:11;;;;;;;38.47;22.33;;;0.40;99.90;;;;;;5031454;28;20202;-74
2021/01/20 05:50:55;;;;;;;43.10;22.43;;;0.40;99.90;;;;;;5031642;28;20253;-74
2021/01/20 05:53:23;;;;;;;43.53;21.77;;;0.50;99.90;;;;;;5029437;28;20203;-75
2021/01/20 05:56:02;;;;;;;39.80;22.20;;;0.50;99.90;;;;;;5028728;28;20645;-73
2021/01/20 05:58:39;;;;;;;42.83;22.27;;;0.50;99.90;;;;;;5030680;28;20261;-73
2021/01/20 06:01:06;;;;;;;40.40;22.83;;;0.50;99.90;;;;;;5028998;28;20198;-73
2021/01/20 06:03:34;;;;;;;37.40;20.37;;;0.50;99.90;;;;;;5030845;28;20199;-73
2021/01/20 06:06:02;;;;;;;37.97;21.60;;;0.50;99.90;;;;;;5028265;28;20210;-73
2021/01/20 06:08:32;;;;;;;37.80;21.60;;;0.50;99.90;;;;;;5029152;28;20293;-73
2021/01/20 06:10:59;;;;;;;40.37;20.90;;;0.60;99.90;;;;;;5025995;28;20219;-73
2021/01/20 06:13:25;;;;;;;41.77;21.80;;;0.60;99.90;;;;;;5018332;28;20211;-73
2021/01/20 06:15:56;;;;;;;39.07;20.17;;;0.60;99.90;;;;;;5032936;28;20206;-73
2021/01/20 06:18:25;;;;;;;39.40;20.67;;;0.60;99.90;;;;;;5028800;28;20248;-73
2021/01/20 06:20:53;;;;;;;41.83;22.47;;;0.60;99.90;;;;;;5028255;28;20198;-73
2021/01/20 06:23:24;;;;;;;35.80;19.53;;;0.60;99.90;;;;;;5025462;28;20209;-73
2021/01/20 06:25:59;;;;;;;38.53;20.80;;;0.60;99.90;;;;;;5029019;28;20210;-73
2021/01/20 06:28:26;;;;;;;38.27;20.77;;;0.70;99.90;;;;;;5032608;28;20198;-74
2021/01/20 06:30:54;;;;;;;39.37;21.23;;;0.70;99.90;;;;;;5028430;28;20306;-73
2021/01/20 06:33:21;;;;;;;36.07;19.27;;;0.70;99.90;;;;;;5028227;28;20215;-73
2021/01/20 06:35:49;;;;;;;42.93;21.37;;;0.70;99.90;;;;;;5029170;28;20208;-73
2021/01/20 06:38:38;;;;;;;36.40;20.03;;;0.70;99.90;;;;;;5029742;28;20215;-74
2021/01/20 06:41:30;;;;;;;39.87;20.53;;;0.80;99.90;;;;;;5026134;28;20317;-73
2021/01/20 06:44:08;;;;;;;32.77;19.20;;;0.80;99.90;;;;;;5025493;28;20229;-74
2021/01/20 06:46:34;;;;;;;35.67;20.23;;;0.80;99.90;;;;;;5031698;28;20271;-73
2021/01/20 06:49:13;;;;;;;37.03;20.47;;;0.80;99.90;;;;;;5027400;28;20238;-73
2021/01/20 06:51:42;;;;;;;37.43;20.00;;;0.80;99.90;;;;;;5026933;28;20580;-72
2021/01/20 06:54:13;;;;;;;37.30;20.40;;;0.80;99.90;;;;;;5030811;28;20203;-73
2021/01/20 06:56:46;;;;;;;38.30;20.90;;;0.80;99.90;;;;;;5027852;28;20608;-72
2021/01/20 06:59:24;;;;;;;36.13;19.90;;;0.80;99.90;;;;;;5031297;28;20235;-73
2021/01/20 07:02:10;;;;;;;39.50;20.50;;;0.90;99.90;;;;;;5028361;28;20286;-73
2021/01/20 07:04:53;;;;;;;36.83;19.00;;;0.90;99.90;;;;;;5030788;28;20278;-73
2021/01/20 07:07:53;;;;;;;36.97;21.20;;;0.90;99.90;;;;;;5027105;28;20198;-73
2021/01/20 07:10:20;;;;;;;40.50;20.67;;;0.90;99.90;;;;;;5031796;28;20204;-73
2021/01/20 07:13:20;;;;;;;34.40;20.13;;;0.90;99.90;;;;;;5029660;28;20633;-72
2021/01/20 07:15:49;;;;;;;38.03;19.20;;;0.90;99.90;;;;;;5030139;28;20210;-74
2021/01/20 07:18:17;;;;;;;35.60;19.30;;;0.90;99.90;;;;;;5024151;28;20211;-73
2021/01/20 07:20:45;;;;;;;36.20;20.17;;;0.80;99.90;;;;;;5023661;28;20208;-72
2021/01/20 07:23:12;;;;;;;37.20;19.67;;;0.90;99.90;;;;;;5031943;28;20361;-73
2021/01/20 07:25:38;;;;;;;37.13;20.30;;;0.90;99.90;;;;;;5029433;28;20711;-73
2021/01/20 07:28:05;;;;;;;34.40;20.57;;;0.90;99.90;;;;;;5025057;28;20219;-74
2021/01/20 07:30:33;;;;;;;35.90;19.00;;;0.90;99.90;;;;;;5022990;28;20266;-74
2021/01/20 07:33:00;;;;;;;37.83;21.40;;;1.00;99.90;;;;;;5026650;28;20218;-74
2021/01/20 07:35:29;;;;;;;41.90;20.30;;;1.00;99.90;;;;;;5034418;28;20675;-75
2021/01/20 07:38:03;;;;;;;35.03;20.20;;;1.00;99.90;;;;;;5029417;28;20671;-76
2021/01/20 07:40:31;;;;;;;37.40;20.77;;;1.00;99.90;;;;;;5029049;28;20198;-74
2021/01/20 07:42:58;;;;;;;37.87;19.87;;;1.00;99.90;;;;;;5029455;28;20194;-75
2021/01/20 07:45:38;;;;;;;37.07;19.93;;;1.00;99.90;;;;;;5028395;28;20249;-76
2021/01/20 07:48:06;;;;;;;37.43;19.57;;;1.00;99.90;;;;;;5029905;28;20206;-74
2021/01/20 07:50:41;;;;;;;34.70;20.27;;;1.00;99.90;;;;;;5029136;28;20207;-75
2021/01/20 07:53:11;;;;;;;34.63;19.33;;;1.00;99.90;;;;;;5034196;28;20226;-74
2021/01/20 07:55:38;;;;;;;32.90;18.80;;;1.10;99.90;;;;;;5033531;28;20293;-74
2021/01/20 07:58:05;;;;;;;32.53;18.53;;;1.10;99.90;;;;;;5023789;28;20206;-71
2021/01/20 08:00:44;;;;;;;37.93;21.00;;;1.10;99.90;;;;;;5028805;28;20670;-74
2021/01/20 08:03:10;;;;;;;35.97;18.97;;;1.10;99.90;;;;;;5027248;28;20242;-74
2021/01/20 08:05:37;;;;;;;32.07;19.10;;;1.20;99.90;;;;;;5032582;28;20237;-72
2021/01/20 08:08:05;;;;;;;39.33;20.47;;;1.20;99.90;;;;;;5026896;28;20214;-72
2021/01/20 08:10:32;;;;;;;37.50;20.00;;;1.20;99.90;;;;;;5022742;28;20217;-71
2021/01/20 08:13:00;;;;;;;34.23;19.53;;;1.30;99.90;;;;;;5024638;28;20586;-71
2021/01/20 08:15:28;;;;;;;37.37;19.43;;;1.30;99.90;;;;;;5030557;28;20203;-71
2021/01/20 08:17:56;;;;;;;35.47;19.37;;;1.30;99.90;;;;;;5024306;28;20295;-71
2021/01/20 08:20:24;;;;;;;39.43;20.10;;;1.30;99.90;;;;;;5031551;28;20309;-70
2021/01/20 08:22:52;;;;;;;36.40;19.20;;;1.40;99.90;;;;;;5029734;28;20214;-73
2021/01/20 08:25:20;;;;;;;35.50;19.67;;;1.50;99.90;;;;;;5031681;28;20206;-73
2021/01/20 08:27:47;;;;;;;31.97;18.00;;;1.50;99.90;;;;;;5030045;28;20215;-75
2021/01/20 08:30:28;;;;;;;34.70;19.37;;;1.50;99.90;;;;;;5030621;28;20246;-73
2021/01/20 08:32:54;;;;;;;32.50;18.60;;;1.50;99.90;;;;;;5033217;28;20210;-73
2021/01/20 08:35:31;;;;;;;35.23;19.10;;;1.50;99.90;;;;;;5030574;28;20385;-72
2021/01/20 08:37:58;;;;;;;31.30;17.97;;;1.60;99.90;;;;;;5033718;28;20232;-75
2021/01/20 08:40:24;;;;;;;42.17;20.37;;;1.60;99.90;;;;;;5038138;28;20206;-77
2021/01/20 08:42:51;;;;;;;35.40;18.90;;;1.60;99.90;;;;;;5031701;28;20214;-73
2021/01/20 08:45:31;;;;;;;32.20;18.67;;;1.70;99.90;;;;;;5032157;28;20209;-73
2021/01/20 08:48:00;;;;;;;29.87;18.50;;;1.60;99.90;;;;;;5036886;28;20218;-73
2021/01/20 08:50:41;;;;;;;40.40;19.87;;;1.70;99.90;;;;;;5035814;28;20210;-73
2021/01/20 08:53:09;;;;;;;35.63;19.47;;;1.70;99.90;;;;;;5031029;28;20243;-73
2021/01/20 08:55:38;;;;;;;33.73;18.17;;;1.70;99.90;;;;;;5030281;28;20209;-70
2021/01/20 08:58:34;;;;;;;36.77;18.80;;;1.70;99.90;;;;;;5020105;28;20203;-73
2021/01/20 09:01:02;;;;;;;37.23;19.23;;;1.80;99.90;;;;;;5021152;28;20796;-73
2021/01/20 09:03:30;;;;;;;40.27;20.00;;;1.80;99.90;;;;;;5036361;28;20222;-73
2021/01/20 09:05:59;;;;;;;34.73;19.87;;;1.80;99.90;;;;;;5028947;28;20211;-75
2021/01/20 09:08:26;;;;;;;31.93;18.00;;;1.90;99.90;;;;;;5023093;28;20237;-75
2021/01/20 09:10:54;;;;;;;34.23;18.97;;;1.90;99.90;;;;;;5032415;28;20297;-73
2021/01/20 09:13:22;;;;;;;35.00;18.97;;;2.00;99.90;;;;;;5029005;28;20721;-72
2021/01/20 09:15:50;;;;;;;34.63;18.70;;;2.00;99.90;;;;;;5021012;28;20648;-72
2021/01/20 09:18:17;;;;;;;38.93;19.73;;;2.00;99.90;;;;;;5029693;28;20217;-72
2021/01/20 09:20:44;;;;;;;31.80;18.87;;;2.00;99.90;;;;;;5027002;28;20241;-73
2021/01/20 09:23:12;;;;;;;37.20;19.57;;;2.00;99.90;;;;;;5032743;28;20211;-72
2021/01/20 09:25:39;;;;;;;33.47;19.07;;;2.10;99.90;;;;;;5036242;28;20220;-73
2021/01/20 09:28:06;;;;;;;38.03;18.60;;;2.10;99.90;;;;;;5035594;28;20275;-74
2021/01/20 09:30:33;;;;;;;33.50;18.33;;;2.10;99.90;;;;;;5032848;28;20299;-73
2021/01/20 09:32:59;;;;;;;35.63;20.23;;;2.10;99.90;;;;;;5028885;28;20673;-73
2021/01/20 09:35:26;;;;;;;33.63;19.20;;;2.20;99.90;;;;;;5033644;28;20290;-72
2021/01/20 09:37:54;;;;;;;36.13;19.50;;;2.20;99.90;;;;;;5026167;28;20240;-72
2021/01/20 09:40:22;;;;;;;36.40;20.00;;;2.30;99.90;;;;;;5034110;28;20210;-73
2021/01/20 09:42:50;;;;;;;36.27;18.73;;;2.30;99.90;;;;;;5026750;28;20234;-71
2021/01/20 09:45:18;;;;;;;35.73;19.83;;;2.30;99.90;;;;;;5028495;28;20313;-73
2021/01/20 09:47:46;;;;;;;33.23;19.43;;;2.30;99.90;;;;;;5023937;28;20207;-73
2021/01/20 09:50:14;;;;;;;32.60;17.87;;;2.30;99.90;;;;;;5029654;28;20293;-73
2021/01/20 09:52:40;;;;;;;34.50;17.23;;;2.40;99.90;;;;;;5025106;28;20214;-73
2021/01/20 09:55:08;;;;;;;32.80;17.80;;;2.40;99.90;;;;;;5024035;28;20218;-75
2021/01/20 09:57:36;;;;;;;29.90;18.40;;;2.50;99.90;;;;;;5030195;28;20252;-75
2021/01/20 10:00:03;;;;;;;29.60;16.87;;;2.50;99.90;;;;;;5026301;28;20262;-75
2021/01/20 10:02:38;;;;;;;32.27;17.90;;;2.50;99.90;;;;;;5024735;28;20213;-76
2021/01/20 10:05:05;;;;;;;35.13;18.87;;;2.60;99.90;;;;;;5034017;28;20198;-75
2021/01/20 10:07:31;;;;;;;30.37;17.03;;;2.60;99.90;;;;;;5025627;28;20541;-74
2021/01/20 10:09:58;;;;;;;31.33;17.27;;;2.70;99.90;;;;;;5034841;28;20360;-76
2021/01/20 10:12:25;;;;;;;32.63;19.40;;;2.70;99.90;;;;;;5031550;28;20231;-75
2021/01/20 10:14:53;;;;;;;38.47;20.13;;;2.70;99.90;;;;;;5035220;28;20207;-76
2021/01/20 10:17:19;;;;;;;33.97;18.47;;;2.70;99.90;;;;;;5030917;28;20246;-75
2021/01/20 10:19:46;;;;;;;33.00;19.47;;;2.70;99.90;;;;;;5037561;28;20211;-75
2021/01/20 10:22:12;;;;;;;33.60;19.63;;;2.70;99.90;;;;;;5032340;28;20294;-74
2021/01/20 10:24:39;;;;;;;37.23;19.53;;;2.70;99.90;;;;;;5029870;28;20304;-75
2021/01/20 10:27:05;;;;;;;35.73;20.53;;;2.70;99.90;;;;;;5034566;28;20313;-75
2021/01/20 10:29:32;;;;;;;34.70;20.70;;;2.70;99.90;;;;;;5031358;28;20306;-74
2021/01/20 10:32:01;;;;;;;38.90;20.93;;;2.80;99.90;;;;;;5029213;28;20227;-71
2021/01/20 10:34:29;;;;;;;37.63;20.60;;;2.80;99.90;;;;;;5025614;28;20210;-73
2021/01/20 10:36:56;;;;;;;36.80;19.20;;;2.80;99.90;;;;;;5026067;28;20210;-73
2021/01/20 10:39:23;;;;;;;37.13;20.17;;;2.80;99.90;;;;;;5025533;28;20546;-74
2021/01/20 10:41:49;;;;;;;36.93;18.80;;;2.80;99.90;;;;;;5023334;28;20637;-72
2021/01/20 10:44:18;;;;;;;33.87;18.83;;;2.90;99.90;;;;;;5030073;28;20226;-72
2021/01/20 10:46:44;;;;;;;33.17;20.33;;;2.90;99.90;;;;;;5025737;28;20503;-72
2021/01/20 10:49:12;;;;;;;36.57;20.03;;;2.90;99.90;;;;;;5024565;28;20210;-73
2021/01/20 10:51:38;;;;;;;36.40;20.03;;;2.90;99.90;;;;;;5024393;28;20226;-73
2021/01/20 10:54:06;;;;;;;37.27;20.00;;;3.00;99.90;;;;;;5028138;28;20303;-72
2021/01/20 10:56:33;;;;;;;36.43;20.60;;;3.00;99.90;;;;;;5028030;28;20203;-71
2021/01/20 10:59:01;;;;;;;40.33;20.53;;;3.00;99.90;;;;;;5023008;28;20273;-70
2021/01/20 11:01:27;;;;;;;33.23;19.27;;;3.10;99.90;;;;;;5029258;28;20206;-72
2021/01/20 11:03:55;;;;;;;36.97;20.90;;;3.10;99.90;;;;;;5024952;28;20470;-72
2021/01/20 11:06:22;;;;;;;33.83;20.30;;;3.10;99.90;;;;;;5028442;28;20289;-72
2021/01/20 11:08:48;;;;;;;36.80;20.97;;;3.10;99.90;;;;;;5026484;28;20210;-72
2021/01/20 11:11:15;;;;;;;38.70;22.03;;;3.20;99.90;;;;;;5026821;28;20310;-70
2021/01/20 11:13:42;;;;;;;38.67;20.87;;;3.20;99.90;;;;;;5031814;28;20633;-72
2021/01/20 11:16:09;;;;;;;39.07;20.37;;;3.30;99.90;;;;;;5025919;28;20254;-72
2021/01/20 11:18:36;;;;;;;42.13;20.97;;;3.30;99.90;;;;;;5027829;28;20218;-70
2021/01/20 11:21:04;;;;;;;37.60;20.70;;;3.30;99.90;;;;;;5027633;28;20202;-73
2021/01/20 11:23:35;;;;;;;36.17;20.10;;;3.40;99.90;;;;;;5028486;28;20708;-72
2021/01/20 11:26:04;;;;;;;36.00;20.53;;;3.40;99.90;;;;;;5020007;28;20249;-71
2021/01/20 11:28:33;;;;;;;37.40;20.23;;;3.40;99.90;;;;;;5024163;28;20214;-71
2021/01/20 11:31:00;;;;;;;34.20;20.67;;;3.40;99.90;;;;;;5024472;28;20257;-71
2021/01/20 11:33:27;;;;;;;35.87;20.70;;;3.40;99.90;;;;;;5023094;28;20238;-72
2021/01/20 11:35:53;;;;;;;37.23;20.87;;;3.50;99.90;;;;;;5024151;28;20301;-75
2021/01/20 11:38:20;;;;;;;32.83;20.07;;;3.50;99.90;;;;;;5027487;28;20302;-74
2021/01/20 11:40:47;;;;;;;37.60;21.77;;;3.50;99.90;;;;;;5023657;28;20211;-74
2021/01/20 11:43:13;;;;;;;34.03;19.73;;;3.50;99.90;;;;;;5027849;28;20230;-74
2021/01/20 11:45:40;;;;;;;35.27;21.20;;;3.50;99.90;;;;;;5027047;28;20296;-77
2021/01/20 11:48:07;;;;;;;32.73;19.47;;;3.50;99.90;;;;;;5028632;28;20644;-77
2021/01/20 11:50:34;;;;;;;37.07;19.40;;;3.60;99.90;;;;;;5024446;28;20214;-75
2021/01/20 11:53:01;;;;;;;33.00;19.10;;;3.60;99.90;;;;;;5031307;28;20223;-74
2021/01/20 11:55:28;;;;;;;31.10;17.63;;;3.70;99.90;;;;;;5028197;28;20558;-75
2021/01/20 11:57:55;;;;;;;32.70;19.00;;;3.70;99.90;;;;;;5028128;28;20278;-75
2021/01/20 12:00:22;;;;;;;28.27;18.37;;;3.70;99.90;;;;;;5032440;28;20764;-74
2021/01/20 12:02:48;;;;;;;27.53;17.83;;;3.80;99.90;;;;;;5031183;28;20233;-74
2021/01/20 12:05:16;;;;;;;28.67;18.60;;;3.90;99.90;;;;;;5033469;28;20663;-75
2021/01/20 12:07:45;;;;;;;28.20;17.60;;;3.90;99.90;;;;;;5030455;28;20249;-76
2021/01/20 12:10:13;;;;;;;27.90;18.57;;;4.00;99.90;;;;;;5030733;28;20904;-74
2021/01/20 12:12:39;;;;;;;30.00;19.53;;;4.00;99.90;;;;;;5021045;28;20295;-74
2021/01/20 12:15:08;;;;;;;26.67;17.60;;;4.10;99.90;;;;;;5031187;28;20675;-73
2021/01/20 12:17:35;;;;;;;28.53;17.27;;;4.20;99.90;;;;;;5029581;28;20643;-74
2021/01/20 12:20:02;;;;;;;26.47;17.47;;;4.40;99.90;;;;;;5033824;28;20207;-77
2021/01/20 12:22:29;;;;;;;26.80;17.60;;;4.40;99.90;;;;;;5033982;28;20560;-75
2021/01/20 12:24:55;;;;;;;25.10;17.33;;;4.40;99.90;;;;;;5029003;28;20302;-75
2021/01/20 12:27:21;;;;;;;29.17;16.80;;;4.50;99.90;;;;;;5027725;28;20751;-75
2021/01/20 12:29:49;;;;;;;27.23;17.07;;;4.60;99.90;;;;;;5028521;28;20574;-74
2021/01/20 12:32:16;;;;;;;27.30;16.83;;;4.70;99.90;;;;;;5032736;28;20277;-76
2021/01/20 12:34:42;;;;;;;22.17;16.00;;;4.70;99.90;;;;;;5030989;28;20276;-73
2021/01/20 12:37:10;;;;;;;24.90;16.53;;;4.70;99.90;;;;;;5030856;28;20229;-71
2021/01/20 12:39:36;;;;;;;22.03;15.53;;;4.80;99.90;;;;;;5029178;28;20217;-73
2021/01/20 12:42:03;;;;;;;27.03;16.37;;;4.90;99.90;;;;;;5030826;28;20746;-72
2021/01/20 12:44:30;;;;;;;22.80;15.70;;;5.00;99.90;;;;;;5029702;28;20341;-74